sensor_id;sensor_type;location;lat;lon;timestamp;temperature;humidity
52609;DHT22;38503;48.544;12.142;2023-03-14T00:01:17;10.90;79.80
52609;DHT22;38503;48.544;12.142;2023-03-14T00:03:44;10.90;79.30
52609;DHT22;38503;48.544;12.142;2023-03-14T00:06:12;10.70;80.90
52609;DHT22;38503;48.544;12.142;2023-03-14T00:08:40;10.60;86.10
52609;DHT22;38503;48.544;12.142;2023-03-14T00:11:12;10.50;90.60
52609;DHT22;38503;48.544;12.142;2023-03-14T00:13:39;10.50;93.10
52609;DHT22;38503;48.544;12.142;2023-03-14T00:16:09;10.50;94.70
52609;DHT22;38503;48.544;12.142;2023-03-14T00:18:37;10.40;94.70
52609;DHT22;38503;48.544;12.142;2023-03-14T00:21:06;10.40;96.20
52609;DHT22;38503;48.544;12.142;2023-03-14T00:23:34;10.40;98.90
52609;DHT22;38503;48.544;12.142;2023-03-14T00:26:04;10.40;97.70
52609;DHT22;38503;48.544;12.142;2023-03-14T00:28:31;10.30;98.00
52609;DHT22;38503;48.544;12.142;2023-03-14T00:30:58;10.30;99.90
52609;DHT22;38503;48.544;12.142;2023-03-14T00:33:25;10.30;99.90
52609;DHT22;38503;48.544;12.142;2023-03-14T00:35:56;10.40;99.90
52609;DHT22;38503;48.544;12.142;2023-03-14T00:38:23;10.40;99.90
52609;DHT22;38503;48.544;12.142;2023-03-14T00:40:53;10.30;99.70
52609;DHT22;38503;48.544;12.142;2023-03-14T00:43:21;10.30;99.80
52609;DHT22;38503;48.544;12.142;2023-03-14T00:45:51;10.20;99.90
52609;DHT22;38503;48.544;12.142;2023-03-14T00:48:20;10.20;99.90
52609;DHT22;38503;48.544;12.142;2023-03-14T00:50:47;10.20;99.90
52609;DHT22;38503;48.544;12.142;2023-03-14T00:53:14;10.20;99.90
52609;DHT22;38503;48.544;12.142;2023-03-14T00:55:42;10.30;99.90
52609;DHT22;38503;48.544;12.142;2023-03-14T00:58:11;10.30;99.90
52609;DHT22;38503;48.544;12.142;2023-03-14T01:00:38;10.20;99.90
52609;DHT22;38503;48.544;12.142;2023-03-14T01:03:06;10.20;99.90
52609;DHT22;38503;48.544;12.142;2023-03-14T01:05:33;10.20;99.90
52609;DHT22;38503;48.544;12.142;2023-03-14T01:08:00;10.20;99.90
52609;DHT22;38503;48.544;12.142;2023-03-14T01:10:27;10.10;99.90
52609;DHT22;38503;48.544;12.142;2023-03-14T01:12:54;10.10;99.90
52609;DHT22;38503;48.544;12.142;2023-03-14T01:15:22;10.00;99.90
52609;DHT22;38503;48.544;12.142;2023-03-14T01:17:51;10.10;99.90
52609;DHT22;38503;48.544;12.142;2023-03-14T01:20:18;10.10;99.90
52609;DHT22;38503;48.544;12.142;2023-03-14T01:22:45;10.10;99.90
52609;DHT22;38503;48.544;12.142;2023-03-14T01:25:16;10.10;99.90
52609;DHT22;38503;48.544;12.142;2023-03-14T01:27:43;10.10;99.90
52609;DHT22;38503;48.544;12.142;2023-03-14T01:30:11;10.10;99.90
52609;DHT22;38503;48.544;12.142;2023-03-14T01:32:41;10.10;99.90
52609;DHT22;38503;48.544;12.142;2023-03-14T01:35:08;10.10;99.90
52609;DHT22;38503;48.544;12.142;2023-03-14T01:37:35;10.20;99.90
52609;DHT22;38503;48.544;12.142;2023-03-14T01:40:02;10.10;99.90
52609;DHT22;38503;48.544;12.142;2023-03-14T01:42:31;10.10;99.90
52609;DHT22;38503;48.544;12.142;2023-03-14T01:45:00;10.20;99.90
52609;DHT22;38503;48.544;12.142;2023-03-14T01:47:27;10.20;99.90
52609;DHT22;38503;48.544;12.142;2023-03-14T01:52:29;10.20;99.90
52609;DHT22;38503;48.544;12.142;2023-03-14T01:55:05;10.20;99.90
52609;DHT22;38503;48.544;12.142;2023-03-14T01:57:36;10.20;99.90
52609;DHT22;38503;48.544;12.142;2023-03-14T02:00:10;10.10;99.90
52609;DHT22;38503;48.544;12.142;2023-03-14T02:02:44;10.20;99.90
52609;DHT22;38503;48.544;12.142;2023-03-14T02:05:16;10.20;99.90
52609;DHT22;38503;48.544;12.142;2023-03-14T02:07:49;10.20;99.90
52609;DHT22;38503;48.544;12.142;2023-03-14T02:10:18;10.10;99.90
52609;DHT22;38503;48.544;12.142;2023-03-14T02:12:48;10.10;99.90
52609;DHT22;38503;48.544;12.142;2023-03-14T02:15:15;10.10;99.90
52609;DHT22;38503;48.544;12.142;2023-03-14T02:17:43;10.00;99.90
52609;DHT22;38503;48.544;12.142;2023-03-14T02:22:57;10.00;99.90
52609;DHT22;38503;48.544;12.142;2023-03-14T02:26:24;9.90;99.90
52609;DHT22;38503;48.544;12.142;2023-03-14T02:28:42;9.90;99.90
52609;DHT22;38503;48.544;12.142;2023-03-14T02:31:09;9.80;99.90
52609;DHT22;38503;48.544;12.142;2023-03-14T02:33:37;9.80;99.90
52609;DHT22;38503;48.544;12.142;2023-03-14T02:36:07;9.80;99.90
52609;DHT22;38503;48.544;12.142;2023-03-14T02:41:15;9.70;99.90
52609;DHT22;38503;48.544;12.142;2023-03-14T02:43:41;9.70;99.90
52609;DHT22;38503;48.544;12.142;2023-03-14T02:46:11;9.60;99.90
52609;DHT22;38503;48.544;12.142;2023-03-14T02:48:51;9.60;99.90
52609;DHT22;38503;48.544;12.142;2023-03-14T02:51:21;9.50;99.90
52609;DHT22;38503;48.544;12.142;2023-03-14T02:53:49;9.40;99.90
52609;DHT22;38503;48.544;12.142;2023-03-14T02:56:16;9.40;99.90
52609;DHT22;38503;48.544;12.142;2023-03-14T02:58:42;9.40;99.90
52609;DHT22;38503;48.544;12.142;2023-03-14T03:01:09;9.30;99.90
52609;DHT22;38503;48.544;12.142;2023-03-14T03:03:38;9.20;99.90
52609;DHT22;38503;48.544;12.142;2023-03-14T03:06:05;9.20;99.90
52609;DHT22;38503;48.544;12.142;2023-03-14T03:08:33;9.20;99.90
52609;DHT22;38503;48.544;12.142;2023-03-14T03:11:00;9.10;99.90
52609;DHT22;38503;48.544;12.142;2023-03-14T03:13:27;9.10;99.90
52609;DHT22;38503;48.544;12.142;2023-03-14T03:15:54;9.00;99.90
52609;DHT22;38503;48.544;12.142;2023-03-14T03:18:21;9.00;99.90
52609;DHT22;38503;48.544;12.142;2023-03-14T03:20:47;9.00;99.90
52609;DHT22;38503;48.544;12.142;2023-03-14T03:23:17;9.00;99.90
52609;DHT22;38503;48.544;12.142;2023-03-14T03:25:53;9.00;99.90
52609;DHT22;38503;48.544;12.142;2023-03-14T03:28:20;8.90;99.90
52609;DHT22;38503;48.544;12.142;2023-03-14T03:30:47;8.90;99.90
52609;DHT22;38503;48.544;12.142;2023-03-14T03:33:14;8.90;99.90
52609;DHT22;38503;48.544;12.142;2023-03-14T03:35:46;8.90;99.90
52609;DHT22;38503;48.544;12.142;2023-03-14T03:38:14;8.90;99.90
52609;DHT22;38503;48.544;12.142;2023-03-14T03:40:41;8.90;99.90
52609;DHT22;38503;48.544;12.142;2023-03-14T03:43:08;8.80;99.90
52609;DHT22;38503;48.544;12.142;2023-03-14T03:45:35;9.40;99.90
52609;DHT22;38503;48.544;12.142;2023-03-14T03:48:02;8.80;99.90
52609;DHT22;38503;48.544;12.142;2023-03-14T03:50:29;8.80;99.90
52609;DHT22;38503;48.544;12.142;2023-03-14T03:52:56;8.80;99.90
52609;DHT22;38503;48.544;12.142;2023-03-14T03:55:22;8.80;99.90
52609;DHT22;38503;48.544;12.142;2023-03-14T03:57:49;8.80;99.90
52609;DHT22;38503;48.544;12.142;2023-03-14T04:00:16;8.80;99.90
52609;DHT22;38503;48.544;12.142;2023-03-14T04:02:43;8.80;99.90
52609;DHT22;38503;48.544;12.142;2023-03-14T04:05:10;8.80;99.90
52609;DHT22;38503;48.544;12.142;2023-03-14T04:07:37;8.80;99.90
52609;DHT22;38503;48.544;12.142;2023-03-14T04:10:04;8.80;99.90
52609;DHT22;38503;48.544;12.142;2023-03-14T04:12:31;8.90;99.90
52609;DHT22;38503;48.544;12.142;2023-03-14T04:14:58;8.80;99.90
52609;DHT22;38503;48.544;12.142;2023-03-14T04:17:25;8.80;99.90
52609;DHT22;38503;48.544;12.142;2023-03-14T04:19:51;8.80;99.90
52609;DHT22;38503;48.544;12.142;2023-03-14T04:22:20;8.80;99.90
52609;DHT22;38503;48.544;12.142;2023-03-14T04:24:47;8.80;99.90
52609;DHT22;38503;48.544;12.142;2023-03-14T04:27:14;8.90;99.90
52609;DHT22;38503;48.544;12.142;2023-03-14T04:29:42;8.80;99.90
52609;DHT22;38503;48.544;12.142;2023-03-14T04:32:09;8.80;99.90
52609;DHT22;38503;48.544;12.142;2023-03-14T04:34:36;8.80;99.90
52609;DHT22;38503;48.544;12.142;2023-03-14T04:37:03;8.80;99.90
52609;DHT22;38503;48.544;12.142;2023-03-14T04:39:29;8.80;99.90
52609;DHT22;38503;48.544;12.142;2023-03-14T04:41:56;8.80;99.90
52609;DHT22;38503;48.544;12.142;2023-03-14T04:44:23;8.80;99.90
52609;DHT22;38503;48.544;12.142;2023-03-14T04:46:50;8.90;99.90
52609;DHT22;38503;48.544;12.142;2023-03-14T04:49:17;8.90;99.90
52609;DHT22;38503;48.544;12.142;2023-03-14T04:51:43;8.90;99.90
52609;DHT22;38503;48.544;12.142;2023-03-14T04:54:10;9.00;99.90
52609;DHT22;38503;48.544;12.142;2023-03-14T04:56:37;9.00;99.90
52609;DHT22;38503;48.544;12.142;2023-03-14T04:59:04;9.00;99.90
52609;DHT22;38503;48.544;12.142;2023-03-14T05:01:31;9.00;99.90
52609;DHT22;38503;48.544;12.142;2023-03-14T05:03:58;9.00;99.90
52609;DHT22;38503;48.544;12.142;2023-03-14T05:06:25;9.10;99.90
52609;DHT22;38503;48.544;12.142;2023-03-14T05:08:52;9.10;99.90
52609;DHT22;38503;48.544;12.142;2023-03-14T05:11:18;9.10;99.90
52609;DHT22;38503;48.544;12.142;2023-03-14T05:13:45;9.10;99.90
52609;DHT22;38503;48.544;12.142;2023-03-14T05:16:12;9.10;99.90
52609;DHT22;38503;48.544;12.142;2023-03-14T05:18:39;9.10;99.90
52609;DHT22;38503;48.544;12.142;2023-03-14T05:21:06;9.10;99.90
52609;DHT22;38503;48.544;12.142;2023-03-14T05:23:33;9.10;99.90
52609;DHT22;38503;48.544;12.142;2023-03-14T05:25:59;9.10;99.90
52609;DHT22;38503;48.544;12.142;2023-03-14T05:28:26;9.10;99.90
52609;DHT22;38503;48.544;12.142;2023-03-14T05:30:53;9.00;99.90
52609;DHT22;38503;48.544;12.142;2023-03-14T05:33:20;9.00;99.20
52609;DHT22;38503;48.544;12.142;2023-03-14T05:35:46;9.00;99.90
52609;DHT22;38503;48.544;12.142;2023-03-14T05:38:13;9.00;99.70
52609;DHT22;38503;48.544;12.142;2023-03-14T05:40:40;9.00;97.40
52609;DHT22;38503;48.544;12.142;2023-03-14T05:43:07;9.00;97.90
52609;DHT22;38503;48.544;12.142;2023-03-14T05:45:35;9.00;98.20
52609;DHT22;38503;48.544;12.142;2023-03-14T05:48:02;9.00;96.90
52609;DHT22;38503;48.544;12.142;2023-03-14T05:50:29;8.90;96.60
52609;DHT22;38503;48.544;12.142;2023-03-14T05:52:55;9.00;95.10
52609;DHT22;38503;48.544;12.142;2023-03-14T05:55:22;9.00;94.90
52609;DHT22;38503;48.544;12.142;2023-03-14T05:57:49;8.90;93.00
52609;DHT22;38503;48.544;12.142;2023-03-14T06:00:16;9.00;92.70
52609;DHT22;38503;48.544;12.142;2023-03-14T06:02:43;9.00;90.80
52609;DHT22;38503;48.544;12.142;2023-03-14T06:05:10;8.90;91.70
52609;DHT22;38503;48.544;12.142;2023-03-14T06:07:39;8.90;92.20
52609;DHT22;38503;48.544;12.142;2023-03-14T06:10:06;8.90;89.00
52609;DHT22;38503;48.544;12.142;2023-03-14T06:12:33;8.90;91.10
52609;DHT22;38503;48.544;12.142;2023-03-14T06:15:00;8.90;90.60
52609;DHT22;38503;48.544;12.142;2023-03-14T06:17:27;8.90;87.00
52609;DHT22;38503;48.544;12.142;2023-03-14T06:19:54;9.00;85.00
52609;DHT22;38503;48.544;12.142;2023-03-14T06:22:20;9.00;81.10
52609;DHT22;38503;48.544;12.142;2023-03-14T06:24:47;9.00;79.30
52609;DHT22;38503;48.544;12.142;2023-03-14T06:27:14;9.00;76.60
52609;DHT22;38503;48.544;12.142;2023-03-14T06:29:41;9.00;79.40
52609;DHT22;38503;48.544;12.142;2023-03-14T06:32:08;9.00;77.80
52609;DHT22;38503;48.544;12.142;2023-03-14T06:34:35;9.00;81.60
52609;DHT22;38503;48.544;12.142;2023-03-14T06:37:02;9.00;79.70
52609;DHT22;38503;48.544;12.142;2023-03-14T06:39:28;9.00;77.00
52609;DHT22;38503;48.544;12.142;2023-03-14T06:41:55;9.00;74.70
52609;DHT22;38503;48.544;12.142;2023-03-14T06:44:22;9.10;72.10
52609;DHT22;38503;48.544;12.142;2023-03-14T06:46:49;9.10;71.00
52609;DHT22;38503;48.544;12.142;2023-03-14T06:49:16;9.10;67.80
52609;DHT22;38503;48.544;12.142;2023-03-14T06:51:43;9.10;60.60
52609;DHT22;38503;48.544;12.142;2023-03-14T06:54:09;9.20;61.10
52609;DHT22;38503;48.544;12.142;2023-03-14T06:56:36;9.20;58.80
52609;DHT22;38503;48.544;12.142;2023-03-14T06:59:03;9.20;57.90
52609;DHT22;38503;48.544;12.142;2023-03-14T07:01:30;9.20;59.30
52609;DHT22;38503;48.544;12.142;2023-03-14T07:03:59;9.30;59.50
52609;DHT22;38503;48.544;12.142;2023-03-14T07:06:26;9.30;59.10
52609;DHT22;38503;48.544;12.142;2023-03-14T07:08:56;9.30;60.10
52609;DHT22;38503;48.544;12.142;2023-03-14T07:11:23;9.40;57.70
52609;DHT22;38503;48.544;12.142;2023-03-14T07:13:50;9.50;55.50
52609;DHT22;38503;48.544;12.142;2023-03-14T07:16:17;9.60;52.20
52609;DHT22;38503;48.544;12.142;2023-03-14T07:18:44;9.80;46.30
52609;DHT22;38503;48.544;12.142;2023-03-14T07:21:11;9.90;46.40
52609;DHT22;38503;48.544;12.142;2023-03-14T07:23:38;9.90;36.00
52609;DHT22;38503;48.544;12.142;2023-03-14T07:26:05;10.00;39.40
52609;DHT22;38503;48.544;12.142;2023-03-14T07:28:32;10.10;34.80
52609;DHT22;38503;48.544;12.142;2023-03-14T07:30:59;10.10;33.40
52609;DHT22;38503;48.544;12.142;2023-03-14T07:33:26;10.20;31.90
52609;DHT22;38503;48.544;12.142;2023-03-14T07:35:53;10.10;31.40
52609;DHT22;38503;48.544;12.142;2023-03-14T07:38:19;10.10;31.40
52609;DHT22;38503;48.544;12.142;2023-03-14T07:40:48;10.00;32.80
52609;DHT22;38503;48.544;12.142;2023-03-14T07:43:16;10.00;33.50
52609;DHT22;38503;48.544;12.142;2023-03-14T07:45:46;10.00;34.50
52609;DHT22;38503;48.544;12.142;2023-03-14T07:48:16;10.00;33.10
52609;DHT22;38503;48.544;12.142;2023-03-14T07:50:43;10.00;30.30
52609;DHT22;38503;48.544;12.142;2023-03-14T07:53:10;10.00;30.10
52609;DHT22;38503;48.544;12.142;2023-03-14T07:55:37;10.00;32.40
52609;DHT22;38503;48.544;12.142;2023-03-14T07:58:03;10.00;34.80
52609;DHT22;38503;48.544;12.142;2023-03-14T08:00:30;10.00;32.50
52609;DHT22;38503;48.544;12.142;2023-03-14T08:02:57;9.90;34.60
52609;DHT22;38503;48.544;12.142;2023-03-14T08:05:24;10.00;35.00
52609;DHT22;38503;48.544;12.142;2023-03-14T08:07:51;10.00;35.90
52609;DHT22;38503;48.544;12.142;2023-03-14T08:10:18;10.00;32.70
52609;DHT22;38503;48.544;12.142;2023-03-14T08:12:55;10.10;30.00
52609;DHT22;38503;48.544;12.142;2023-03-14T08:15:23;10.20;26.80
52609;DHT22;38503;48.544;12.142;2023-03-14T08:17:50;10.30;24.00
52609;DHT22;38503;48.544;12.142;2023-03-14T08:20:18;10.40;21.40
52609;DHT22;38503;48.544;12.142;2023-03-14T08:22:45;10.50;19.90
52609;DHT22;38503;48.544;12.142;2023-03-14T08:25:12;10.50;16.30
52609;DHT22;38503;48.544;12.142;2023-03-14T08:27:39;10.60;13.40
52609;DHT22;38503;48.544;12.142;2023-03-14T08:30:12;10.70;12.30
52609;DHT22;38503;48.544;12.142;2023-03-14T08:32:39;10.70;7.30
52609;DHT22;38503;48.544;12.142;2023-03-14T08:35:07;10.80;1.00
52609;DHT22;38503;48.544;12.142;2023-03-14T08:37:35;10.90;1.00
52609;DHT22;38503;48.544;12.142;2023-03-14T08:40:04;11.10;1.00
52609;DHT22;38503;48.544;12.142;2023-03-14T08:42:33;11.30;1.00
52609;DHT22;38503;48.544;12.142;2023-03-14T08:45:00;11.50;1.00
52609;DHT22;38503;48.544;12.142;2023-03-14T08:47:27;11.60;1.00
52609;DHT22;38503;48.544;12.142;2023-03-14T08:49:54;11.60;1.00
52609;DHT22;38503;48.544;12.142;2023-03-14T08:52:21;11.50;1.00
52609;DHT22;38503;48.544;12.142;2023-03-14T08:54:48;11.40;1.00
52609;DHT22;38503;48.544;12.142;2023-03-14T08:57:15;11.50;1.00
52609;DHT22;38503;48.544;12.142;2023-03-14T08:59:42;11.40;1.00
52609;DHT22;38503;48.544;12.142;2023-03-14T09:02:11;11.40;1.00
52609;DHT22;38503;48.544;12.142;2023-03-14T09:04:39;11.40;1.00
52609;DHT22;38503;48.544;12.142;2023-03-14T09:07:06;11.40;1.00
52609;DHT22;38503;48.544;12.142;2023-03-14T09:09:32;11.40;1.00
52609;DHT22;38503;48.544;12.142;2023-03-14T09:11:59;11.50;1.00
52609;DHT22;38503;48.544;12.142;2023-03-14T09:14:26;11.50;1.00
52609;DHT22;38503;48.544;12.142;2023-03-14T09:16:53;11.60;1.00
52609;DHT22;38503;48.544;12.142;2023-03-14T09:19:20;11.90;1.00
52609;DHT22;38503;48.544;12.142;2023-03-14T09:21:47;12.00;1.00
52609;DHT22;38503;48.544;12.142;2023-03-14T09:24:14;12.00;1.00
52609;DHT22;38503;48.544;12.142;2023-03-14T09:26:41;12.00;1.00
52609;DHT22;38503;48.544;12.142;2023-03-14T09:29:08;11.80;1.00
52609;DHT22;38503;48.544;12.142;2023-03-14T09:31:34;11.90;1.00
52609;DHT22;38503;48.544;12.142;2023-03-14T09:34:02;12.20;1.00
52609;DHT22;38503;48.544;12.142;2023-03-14T09:36:29;12.10;1.00
52609;DHT22;38503;48.544;12.142;2023-03-14T09:38:56;11.80;1.00
52609;DHT22;38503;48.544;12.142;2023-03-14T09:41:28;12.00;1.00
52609;DHT22;38503;48.544;12.142;2023-03-14T09:44:15;12.10;1.00
52609;DHT22;38503;48.544;12.142;2023-03-14T09:46:46;12.00;1.00
52609;DHT22;38503;48.544;12.142;2023-03-14T09:49:20;12.10;1.00
52609;DHT22;38503;48.544;12.142;2023-03-14T09:51:50;12.10;1.00
52609;DHT22;38503;48.544;12.142;2023-03-14T09:56:58;12.20;1.00
52609;DHT22;38503;48.544;12.142;2023-03-14T09:59:26;12.50;1.00
52609;DHT22;38503;48.544;12.142;2023-03-14T10:01:58;12.50;1.00
52609;DHT22;38503;48.544;12.142;2023-03-14T10:04:27;12.60;1.00
52609;DHT22;38503;48.544;12.142;2023-03-14T10:06:54;12.60;1.00
52609;DHT22;38503;48.544;12.142;2023-03-14T10:09:23;12.60;1.00
52609;DHT22;38503;48.544;12.142;2023-03-14T10:11:57;12.60;1.00
52609;DHT22;38503;48.544;12.142;2023-03-14T10:14:37;12.70;1.00
52609;DHT22;38503;48.544;12.142;2023-03-14T10:17:06;12.90;1.00
52609;DHT22;38503;48.544;12.142;2023-03-14T10:19:34;12.80;1.00
52609;DHT22;38503;48.544;12.142;2023-03-14T10:22:04;12.70;1.00
52609;DHT22;38503;48.544;12.142;2023-03-14T10:24:34;13.00;1.00
52609;DHT22;38503;48.544;12.142;2023-03-14T10:27:04;13.30;1.00
52609;DHT22;38503;48.544;12.142;2023-03-14T10:29:33;13.20;98.10
52609;DHT22;38503;48.544;12.142;2023-03-14T10:32:03;12.90;1.00
52609;DHT22;38503;48.544;12.142;2023-03-14T10:34:36;12.80;97.00
52609;DHT22;38503;48.544;12.142;2023-03-14T10:37:18;12.90;97.60
52609;DHT22;38503;48.544;12.142;2023-03-14T10:39:49;13.30;99.90
52609;DHT22;38503;48.544;12.142;2023-03-14T10:42:30;13.30;97.50
52609;DHT22;38503;48.544;12.142;2023-03-14T10:45:01;13.10;97.50
52609;DHT22;38503;48.544;12.142;2023-03-14T10:47:29;12.80;99.90
52609;DHT22;38503;48.544;12.142;2023-03-14T10:49:57;12.80;1.00
52609;DHT22;38503;48.544;12.142;2023-03-14T10:52:28;12.80;1.00
52609;DHT22;38503;48.544;12.142;2023-03-14T10:54:59;12.70;1.00
52609;DHT22;38503;48.544;12.142;2023-03-14T10:57:27;12.70;1.00
52609;DHT22;38503;48.544;12.142;2023-03-14T10:59:55;12.90;1.00
52609;DHT22;38503;48.544;12.142;2023-03-14T11:11:14;13.70;96.60
52609;DHT22;38503;48.544;12.142;2023-03-14T11:29:40;13.40;95.90
52609;DHT22;38503;48.544;12.142;2023-03-14T11:32:24;13.10;95.50
52609;DHT22;38503;48.544;12.142;2023-03-14T11:34:54;12.90;43.70
52609;DHT22;38503;48.544;12.142;2023-03-14T11:37:34;12.80;99.90
52609;DHT22;38503;48.544;12.142;2023-03-14T11:40:16;12.90;99.90
52609;DHT22;38503;48.544;12.142;2023-03-14T11:42:48;12.90;99.90
52609;DHT22;38503;48.544;12.142;2023-03-14T11:45:20;13.00;99.90
52609;DHT22;38503;48.544;12.142;2023-03-14T11:47:59;13.00;99.90
52609;DHT22;38503;48.544;12.142;2023-03-14T11:50:30;12.90;99.90
52609;DHT22;38503;48.544;12.142;2023-03-14T11:53:04;12.80;99.90
52609;DHT22;38503;48.544;12.142;2023-03-14T11:55:37;12.70;99.90
52609;DHT22;38503;48.544;12.142;2023-03-14T12:00:44;12.90;99.90
52609;DHT22;38503;48.544;12.142;2023-03-14T12:03:28;12.90;99.90
52609;DHT22;38503;48.544;12.142;2023-03-14T12:06:16;12.80;99.90
52609;DHT22;38503;48.544;12.142;2023-03-14T12:08:52;12.80;99.90
52609;DHT22;38503;48.544;12.142;2023-03-14T12:11:22;12.70;99.90
52609;DHT22;38503;48.544;12.142;2023-03-14T12:13:52;12.70;99.90
52609;DHT22;38503;48.544;12.142;2023-03-14T12:16:30;12.70;99.90
52609;DHT22;38503;48.544;12.142;2023-03-14T12:21:57;13.00;99.90
52609;DHT22;38503;48.544;12.142;2023-03-14T12:24:33;13.10;99.90
52609;DHT22;38503;48.544;12.142;2023-03-14T12:27:03;13.20;44.00
52609;DHT22;38503;48.544;12.142;2023-03-14T12:29:30;13.10;95.20
52609;DHT22;38503;48.544;12.142;2023-03-14T12:34:30;13.00;73.60
52609;DHT22;38503;48.544;12.142;2023-03-14T12:47:42;13.40;1.00
52609;DHT22;38503;48.544;12.142;2023-03-14T12:50:18;13.30;1.00
52609;DHT22;38503;48.544;12.142;2023-03-14T12:55:35;13.30;1.00
52609;DHT22;38503;48.544;12.142;2023-03-14T13:00:40;13.30;99.90
52609;DHT22;38503;48.544;12.142;2023-03-14T13:03:26;13.20;95.60
52609;DHT22;38503;48.544;12.142;2023-03-14T13:05:57;13.10;1.00
52609;DHT22;38503;48.544;12.142;2023-03-14T13:08:45;13.00;1.00
52609;DHT22;38503;48.544;12.142;2023-03-14T13:11:19;12.90;1.00
52609;DHT22;38503;48.544;12.142;2023-03-14T13:13:57;12.90;1.00
52609;DHT22;38503;48.544;12.142;2023-03-14T13:16:25;12.90;1.00
52609;DHT22;38503;48.544;12.142;2023-03-14T13:19:18;12.80;99.90
52609;DHT22;38503;48.544;12.142;2023-03-14T13:21:50;12.70;99.90
52609;DHT22;38503;48.544;12.142;2023-03-14T13:24:27;12.70;95.70
52609;DHT22;38503;48.544;12.142;2023-03-14T13:26:55;12.70;1.00
52609;DHT22;38503;48.544;12.142;2023-03-14T13:31:53;12.70;1.00
52609;DHT22;38503;48.544;12.142;2023-03-14T13:34:20;12.70;1.00
52609;DHT22;38503;48.544;12.142;2023-03-14T13:36:52;12.70;1.00
52609;DHT22;38503;48.544;12.142;2023-03-14T13:39:21;12.80;1.00
52609;DHT22;38503;48.544;12.142;2023-03-14T13:41:59;12.90;1.00
52609;DHT22;38503;48.544;12.142;2023-03-14T13:47:05;13.00;1.00
52609;DHT22;38503;48.544;12.142;2023-03-14T13:49:33;13.00;1.00
52609;DHT22;38503;48.544;12.142;2023-03-14T13:52:03;12.90;19.80
52609;DHT22;38503;48.544;12.142;2023-03-14T13:54:31;12.80;28.50
52609;DHT22;38503;48.544;12.142;2023-03-14T13:57:04;12.60;31.00
52609;DHT22;38503;48.544;12.142;2023-03-14T13:59:33;12.50;99.90
52609;DHT22;38503;48.544;12.142;2023-03-14T14:02:04;12.50;99.90
52609;DHT22;38503;48.544;12.142;2023-03-14T14:04:37;12.50;99.90
52609;DHT22;38503;48.544;12.142;2023-03-14T14:07:09;12.40;99.90
52609;DHT22;38503;48.544;12.142;2023-03-14T14:09:41;12.40;99.90
52609;DHT22;38503;48.544;12.142;2023-03-14T14:12:35;12.40;1.00
52609;DHT22;38503;48.544;12.142;2023-03-14T14:15:21;12.40;1.00
52609;DHT22;38503;48.544;12.142;2023-03-14T14:17:55;12.30;1.00
52609;DHT22;38503;48.544;12.142;2023-03-14T14:22:50;12.10;1.00
52609;DHT22;38503;48.544;12.142;2023-03-14T14:25:17;12.10;1.00
52609;DHT22;38503;48.544;12.142;2023-03-14T14:27:48;11.90;1.00
52609;DHT22;38503;48.544;12.142;2023-03-14T14:32:48;11.30;1.00
52609;DHT22;38503;48.544;12.142;2023-03-14T14:35:31;11.00;1.00
52609;DHT22;38503;48.544;12.142;2023-03-14T14:37:59;10.70;7.90
52609;DHT22;38503;48.544;12.142;2023-03-14T14:40:27;10.70;31.70
52609;DHT22;38503;48.544;12.142;2023-03-14T14:43:01;10.50;34.60
52609;DHT22;38503;48.544;12.142;2023-03-14T14:45:28;10.40;35.20
52609;DHT22;38503;48.544;12.142;2023-03-14T14:48:06;10.20;49.10
52609;DHT22;38503;48.544;12.142;2023-03-14T14:53:28;9.80;75.30
52609;DHT22;38503;48.544;12.142;2023-03-14T14:56:04;9.80;80.00
52609;DHT22;38503;48.544;12.142;2023-03-14T14:58:41;9.90;70.30
52609;DHT22;38503;48.544;12.142;2023-03-14T15:01:19;9.90;72.20
52609;DHT22;38503;48.544;12.142;2023-03-14T15:03:49;9.90;73.00
52609;DHT22;38503;48.544;12.142;2023-03-14T15:06:17;9.70;72.30
52609;DHT22;38503;48.544;12.142;2023-03-14T15:08:46;9.70;67.70
52609;DHT22;38503;48.544;12.142;2023-03-14T15:11:22;9.70;52.90
52609;DHT22;38503;48.544;12.142;2023-03-14T15:13:51;9.50;52.20
52609;DHT22;38503;48.544;12.142;2023-03-14T15:16:31;9.30;72.30
52609;DHT22;38503;48.544;12.142;2023-03-14T15:19:00;9.10;79.70
52609;DHT22;38503;48.544;12.142;2023-03-14T15:21:40;9.00;81.20
52609;DHT22;38503;48.544;12.142;2023-03-14T15:24:09;9.00;92.10
52609;DHT22;38503;48.544;12.142;2023-03-14T15:26:36;9.00;93.30
52609;DHT22;38503;48.544;12.142;2023-03-14T15:29:03;8.90;96.20
52609;DHT22;38503;48.544;12.142;2023-03-14T15:31:31;8.90;94.70
52609;DHT22;38503;48.544;12.142;2023-03-14T15:33:58;8.90;96.60
52609;DHT22;38503;48.544;12.142;2023-03-14T15:36:27;8.80;95.10
52609;DHT22;38503;48.544;12.142;2023-03-14T15:38:55;8.80;93.10
52609;DHT22;38503;48.544;12.142;2023-03-14T15:41:22;8.80;93.30
52609;DHT22;38503;48.544;12.142;2023-03-14T15:43:49;8.80;92.90
52609;DHT22;38503;48.544;12.142;2023-03-14T15:46:16;8.90;84.60
52609;DHT22;38503;48.544;12.142;2023-03-14T15:48:45;8.90;57.20
52609;DHT22;38503;48.544;12.142;2023-03-14T15:51:12;8.90;56.10
52609;DHT22;38503;48.544;12.142;2023-03-14T15:53:39;8.90;55.10
52609;DHT22;38503;48.544;12.142;2023-03-14T15:56:09;8.80;49.70
52609;DHT22;38503;48.544;12.142;2023-03-14T15:58:37;8.80;49.80
52609;DHT22;38503;48.544;12.142;2023-03-14T16:01:08;8.90;49.20
52609;DHT22;38503;48.544;12.142;2023-03-14T16:03:37;8.90;50.90
52609;DHT22;38503;48.544;12.142;2023-03-14T16:06:05;8.90;51.00
52609;DHT22;38503;48.544;12.142;2023-03-14T16:08:32;8.90;43.40
52609;DHT22;38503;48.544;12.142;2023-03-14T16:10:59;8.90;41.10
52609;DHT22;38503;48.544;12.142;2023-03-14T16:13:26;9.00;46.50
52609;DHT22;38503;48.544;12.142;2023-03-14T16:15:58;8.90;42.30
52609;DHT22;38503;48.544;12.142;2023-03-14T16:18:28;8.80;40.40
52609;DHT22;38503;48.544;12.142;2023-03-14T16:20:57;8.90;42.30
52609;DHT22;38503;48.544;12.142;2023-03-14T16:23:25;8.90;1.00
52609;DHT22;38503;48.544;12.142;2023-03-14T16:25:55;9.00;1.00
52609;DHT22;38503;48.544;12.142;2023-03-14T16:28:24;9.00;1.00
52609;DHT22;38503;48.544;12.142;2023-03-14T16:30:51;8.90;1.00
52609;DHT22;38503;48.544;12.142;2023-03-14T16:33:18;8.90;1.00
52609;DHT22;38503;48.544;12.142;2023-03-14T16:35:59;8.90;1.00
52609;DHT22;38503;48.544;12.142;2023-03-14T16:38:32;8.80;1.00
52609;DHT22;38503;48.544;12.142;2023-03-14T16:41:11;8.70;96.50
52609;DHT22;38503;48.544;12.142;2023-03-14T16:43:39;8.70;96.40
52609;DHT22;38503;48.544;12.142;2023-03-14T16:46:09;8.60;99.90
52609;DHT22;38503;48.544;12.142;2023-03-14T16:48:36;8.60;95.10
52609;DHT22;38503;48.544;12.142;2023-03-14T16:51:04;8.40;99.90